Time;durP1;ratioP1;P1;durP2;ratioP2;P2;SDS_P1;SDS_P2;PMS_P1;PMS_P2;Temp;Humidity;BMP_temperature;BMP_pressure;BME280_temperature;BME280_humidity;BME280_pressure;Samples;Min_cycle;Max_cycle;Signal;HPM_P1;HPM_P2
2022/03/04 00:02:05;;;;;;;8.73;5.80;;;-0.60;34.50;;;;;;5064750;28;34214;-77
2022/03/04 00:04:34;;;;;;;11.15;5.47;;;-0.60;34.80;;;;;;5047951;28;34432;-77
2022/03/04 00:07:00;;;;;;;11.32;5.85;;;-0.60;35.00;;;;;;5046704;28;36338;-77
2022/03/04 00:09:32;;;;;;;11.48;6.07;;;-0.70;34.90;;;;;;5047871;28;34247;-77
2022/03/04 00:11:58;;;;;;;9.88;5.82;;;-0.70;35.00;;;;;;5064944;28;34466;-77
2022/03/04 00:14:25;;;;;;;9.00;5.70;;;-0.70;34.80;;;;;;5065189;28;34044;-77
2022/03/04 00:16:52;;;;;;;11.43;5.80;;;-0.80;34.90;;;;;;5046532;28;36679;-77
2022/03/04 00:19:18;;;;;;;9.23;5.50;;;-0.80;34.90;;;;;;5030435;28;34013;-77
2022/03/04 00:21:49;;;;;;;11.27;6.13;;;-0.80;35.10;;;;;;5046880;28;34051;-78
2022/03/04 00:24:17;;;;;;;8.98;5.43;;;-0.80;35.50;;;;;;5047278;28;34461;-78
2022/03/04 00:26:43;;;;;;;11.63;5.47;;;-0.90;35.40;;;;;;5030708;28;35293;-78
2022/03/04 00:29:10;;;;;;;9.98;6.22;;;-0.90;35.10;;;;;;5064478;28;33961;-78
2022/03/04 00:31:36;;;;;;;13.45;5.68;;;-0.90;34.90;;;;;;5046982;28;34167;-78
2022/03/04 00:34:06;;;;;;;9.02;5.82;;;-0.90;35.40;;;;;;5030267;28;34415;-78
2022/03/04 00:36:32;;;;;;;9.25;5.47;;;-1.00;35.20;;;;;;5046804;28;35693;-78
2022/03/04 00:38:59;;;;;;;10.32;5.93;;;-1.00;35.10;;;;;;5046591;28;34060;-77
2022/03/04 00:41:24;;;;;;;7.95;4.82;;;-1.00;35.10;;;;;;5046373;28;34041;-78
2022/03/04 00:43:51;;;;;;;8.43;5.47;;;-1.10;35.20;;;;;;5064977;28;34355;-78
2022/03/04 00:46:18;;;;;;;7.05;5.13;;;-1.10;35.30;;;;;;5064480;28;34363;-78
2022/03/04 00:48:45;;;;;;;8.70;5.55;;;-1.10;35.60;;;;;;5064395;28;34132;-77
2022/03/04 00:51:13;;;;;;;10.45;6.03;;;-1.10;35.50;;;;;;5030023;28;34089;-77
2022/03/04 00:53:40;;;;;;;9.90;5.05;;;-1.10;35.60;;;;;;5064317;28;34032;-77
2022/03/04 00:56:08;;;;;;;8.90;4.80;;;-1.20;35.80;;;;;;5046100;28;35773;-77
2022/03/04 00:58:34;;;;;;;8.50;5.53;;;-1.20;35.70;;;;;;5046745;28;34080;-77
2022/03/04 01:01:01;;;;;;;9.52;5.68;;;-1.20;35.80;;;;;;5064570;28;34011;-78
2022/03/04 01:03:27;;;;;;;9.18;5.65;;;-1.30;35.80;;;;;;5046636;28;34118;-78
2022/03/04 01:05:53;;;;;;;8.52;5.43;;;-1.30;36.50;;;;;;5046130;28;35694;-78
2022/03/04 01:08:19;;;;;;;9.75;6.35;;;-1.30;35.90;;;;;;5046291;28;34156;-78
2022/03/04 01:10:45;;;;;;;7.95;5.60;;;-1.30;36.00;;;;;;5041268;28;34105;-78
2022/03/04 01:13:11;;;;;;;7.53;4.97;;;-1.30;35.90;;;;;;5026691;28;34134;-77
2022/03/04 01:15:37;;;;;;;9.18;4.55;;;-1.30;35.90;;;;;;5043810;28;34252;-78
2022/03/04 01:18:04;;;;;;;8.35;5.05;;;-1.30;35.80;;;;;;5026338;28;34113;-77
2022/03/04 01:20:31;;;;;;;8.05;4.90;;;-1.40;35.80;;;;;;5026321;28;34166;-77
2022/03/04 01:22:57;;;;;;;6.43;5.15;;;-1.40;35.80;;;;;;5044134;28;34058;-77
2022/03/04 01:25:24;;;;;;;10.07;5.78;;;-1.40;35.60;;;;;;5025989;28;36510;-77
2022/03/04 01:27:50;;;;;;;7.20;4.65;;;-1.40;35.60;;;;;;5043484;28;34329;-78
2022/03/04 01:30:16;;;;;;;8.35;4.70;;;-1.50;36.10;;;;;;5026425;28;34379;-77
2022/03/04 01:32:42;;;;;;;8.45;4.28;;;-1.50;35.90;;;;;;5026113;28;34193;-78
2022/03/04 01:35:09;;;;;;;7.82;5.20;;;-1.50;36.30;;;;;;5025549;28;35842;-78
2022/03/04 01:37:35;;;;;;;8.80;4.63;;;-1.50;36.20;;;;;;5025922;28;34312;-78
2022/03/04 01:40:04;;;;;;;10.15;5.30;;;-1.50;36.30;;;;;;5026498;28;34111;-78
2022/03/04 01:42:30;;;;;;;9.27;5.10;;;-1.50;36.20;;;;;;5009721;28;34052;-78
2022/03/04 01:44:56;;;;;;;7.50;4.80;;;-1.50;36.20;;;;;;5026027;28;35667;-77
2022/03/04 01:47:22;;;;;;;7.72;5.47;;;-1.60;35.90;;;;;;5026146;28;34149;-77
2022/03/04 01:49:48;;;;;;;8.63;4.18;;;-1.60;36.60;;;;;;5043500;28;34228;-77
2022/03/04 01:52:14;;;;;;;6.43;4.30;;;-1.60;36.30;;;;;;5025490;28;34521;-77
2022/03/04 01:54:41;;;;;;;9.13;5.00;;;-1.60;36.20;;;;;;5025584;28;36064;-77
2022/03/04 01:57:07;;;;;;;10.98;5.18;;;-1.60;35.90;;;;;;5025302;28;34403;-77
2022/03/04 01:59:34;;;;;;;6.60;4.78;;;-1.60;35.60;;;;;;5025354;28;34180;-77
2022/03/04 02:02:00;;;;;;;9.20;4.93;;;-1.60;36.00;;;;;;5043094;28;34417;-77
2022/03/04 02:04:27;;;;;;;7.43;4.85;;;-1.60;36.10;;;;;;5043224;28;34302;-77
2022/03/04 02:06:53;;;;;;;8.27;4.72;;;-1.70;36.10;;;;;;5026610;28;34114;-77
2022/03/04 02:09:19;;;;;;;8.15;4.50;;;-1.70;36.20;;;;;;5028837;28;34116;-77
2022/03/04 02:11:45;;;;;;;9.20;5.25;;;-1.70;36.10;;;;;;5011860;28;34142;-77
2022/03/04 02:14:12;;;;;;;7.60;4.95;;;-1.70;36.10;;;;;;5028789;28;36329;-77
2022/03/04 02:16:47;;;;;;;8.18;4.75;;;-1.80;35.60;;;;;;5046901;28;34150;-77
2022/03/04 02:19:13;;;;;;;6.75;4.68;;;-1.80;35.80;;;;;;5012677;28;34379;-77
2022/03/04 02:21:56;;;;;;;9.02;5.72;;;-1.80;36.20;;;;;;5012654;28;34447;-78
2022/03/04 02:24:24;;;;;;;8.13;4.60;;;-1.80;36.80;;;;;;5029084;28;34126;-78
2022/03/04 02:26:52;;;;;;;7.22;5.00;;;-1.90;36.00;;;;;;5012286;28;34183;-78
2022/03/04 02:29:19;;;;;;;6.57;4.45;;;-1.90;36.10;;;;;;5046811;28;34140;-78
2022/03/04 02:31:45;;;;;;;8.60;4.82;;;-1.90;35.80;;;;;;5028754;28;34583;-77
2022/03/04 02:34:11;;;;;;;6.32;4.40;;;-2.00;36.00;;;;;;5028817;28;35876;-78
2022/03/04 02:36:38;;;;;;;7.95;4.85;;;-2.00;36.30;;;;;;5028957;28;34088;-78
2022/03/04 02:39:06;;;;;;;8.45;5.07;;;-2.00;36.20;;;;;;5028474;28;34174;-78
2022/03/04 02:41:34;;;;;;;7.80;4.72;;;-2.00;36.00;;;;;;5029040;28;34141;-78
2022/03/04 02:44:06;;;;;;;5.75;3.92;;;-2.00;36.00;;;;;;5028143;28;36059;-78
2022/03/04 02:46:33;;;;;;;9.82;5.22;;;-2.10;36.90;;;;;;5012339;28;34158;-77
2022/03/04 02:48:59;;;;;;;8.70;4.57;;;-2.10;36.60;;;;;;5012368;28;34150;-78
2022/03/04 02:51:25;;;;;;;8.45;4.28;;;-2.10;36.60;;;;;;5028696;28;34134;-77
2022/03/04 02:53:51;;;;;;;6.63;4.95;;;-2.10;36.40;;;;;;5011981;28;35511;-77
2022/03/04 02:56:18;;;;;;;8.43;4.97;;;-2.10;36.60;;;;;;5028581;28;34003;-77
2022/03/04 02:58:44;;;;;;;7.28;4.53;;;-2.20;36.40;;;;;;5046369;28;34201;-77
2022/03/04 03:01:10;;;;;;;8.23;4.35;;;-2.20;36.70;;;;;;5028157;28;34074;-77
2022/03/04 03:03:36;;;;;;;7.85;4.53;;;-2.20;36.70;;;;;;5027907;28;35681;-78
2022/03/04 03:06:02;;;;;;;6.45;4.50;;;-2.20;36.70;;;;;;5028711;28;34416;-78
2022/03/04 03:08:30;;;;;;;7.13;4.60;;;-2.20;36.70;;;;;;5012294;28;34383;-78
2022/03/04 03:10:56;;;;;;;8.43;4.70;;;-2.20;36.60;;;;;;5010930;28;34442;-78
2022/03/04 03:13:22;;;;;;;6.00;4.32;;;-2.30;36.60;;;;;;5027870;28;36655;-77
2022/03/04 03:15:49;;;;;;;5.85;4.53;;;-2.30;37.00;;;;;;5046318;28;34167;-78
2022/03/04 03:18:16;;;;;;;8.30;4.55;;;-2.30;36.80;;;;;;5045115;28;34233;-78
2022/03/04 03:20:42;;;;;;;8.27;5.25;;;-2.30;36.70;;;;;;5029171;28;34154;-78
2022/03/04 03:23:08;;;;;;;8.68;4.65;;;-2.30;36.80;;;;;;5027549;28;35487;-78
2022/03/04 03:25:34;;;;;;;8.27;4.85;;;-2.40;36.70;;;;;;5028373;28;34167;-78
2022/03/04 03:28:02;;;;;;;8.02;4.63;;;-2.40;37.20;;;;;;5028267;28;34091;-78
2022/03/04 03:30:28;;;;;;;6.68;4.28;;;-2.40;36.80;;;;;;5028507;28;34430;-78
2022/03/04 03:32:55;;;;;;;10.15;5.03;;;-2.40;36.80;;;;;;5011453;28;36613;-78
2022/03/04 03:35:21;;;;;;;8.75;4.65;;;-2.40;36.80;;;;;;5012040;28;34485;-78
2022/03/04 03:37:47;;;;;;;7.00;4.65;;;-2.40;37.00;;;;;;5028513;28;34354;-78
2022/03/04 03:40:14;;;;;;;7.35;4.43;;;-2.50;36.80;;;;;;5028402;28;34332;-78
2022/03/04 03:42:40;;;;;;;5.28;4.15;;;-2.50;36.70;;;;;;5027600;28;36320;-78
2022/03/04 03:45:08;;;;;;;7.25;4.00;;;-2.50;37.00;;;;;;5028362;28;34166;-78
2022/03/04 03:47:34;;;;;;;8.70;4.22;;;-2.50;37.10;;;;;;5027851;28;34102;-78
2022/03/04 03:50:01;;;;;;;9.48;4.68;;;-2.50;37.30;;;;;;5045214;28;34150;-78
2022/03/04 03:52:27;;;;;;;8.52;4.32;;;-2.60;37.20;;;;;;5011622;28;35536;-78
2022/03/04 03:54:53;;;;;;;6.30;3.90;;;-2.60;37.00;;;;;;5045449;28;34360;-78
2022/03/04 03:57:19;;;;;;;7.80;4.47;;;-2.60;36.80;;;;;;5011687;28;34229;-78
2022/03/04 03:59:45;;;;;;;7.10;4.25;;;-2.60;37.20;;;;;;5027640;28;34284;-78
2022/03/04 04:02:11;;;;;;;8.60;4.50;;;-2.60;36.90;;;;;;5010853;28;35630;-78
2022/03/04 04:04:37;;;;;;;8.10;4.72;;;-2.60;36.50;;;;;;5028425;28;34302;-78
2022/03/04 04:07:05;;;;;;;5.93;4.15;;;-2.60;36.70;;;;;;5028189;28;34023;-78
2022/03/04 04:09:31;;;;;;;8.20;5.10;;;-2.70;36.30;;;;;;4995494;28;35151;-78
2022/03/04 04:11:58;;;;;;;7.68;4.28;;;-2.70;36.70;;;;;;5027250;28;35855;-78
2022/03/04 04:14:25;;;;;;;7.55;4.20;;;-2.70;37.20;;;;;;5027788;28;34402;-78
2022/03/04 04:16:51;;;;;;;6.57;4.05;;;-2.70;37.30;;;;;;5027746;28;34241;-78
2022/03/04 04:19:16;;;;;;;8.63;4.35;;;-2.80;37.20;;;;;;5045813;28;34255;-78
2022/03/04 04:21:42;;;;;;;5.88;3.80;;;-2.70;37.30;;;;;;5045014;28;34003;-78
2022/03/04 04:24:08;;;;;;;5.80;4.13;;;-2.80;37.00;;;;;;5045360;28;34202;-78
2022/03/04 04:26:35;;;;;;;6.60;4.43;;;-2.80;37.10;;;;;;5027515;28;34229;-78
2022/03/04 04:29:01;;;;;;;6.43;3.75;;;-2.80;37.30;;;;;;5027284;28;34531;-78
2022/03/04 04:31:28;;;;;;;6.53;4.43;;;-2.80;37.70;;;;;;5027839;28;36941;-78
2022/03/04 04:33:53;;;;;;;6.28;4.25;;;-2.90;36.90;;;;;;5010185;28;34155;-78
2022/03/04 04:36:19;;;;;;;6.63;4.22;;;-2.90;37.20;;;;;;5027664;28;34059;-78
2022/03/04 04:38:46;;;;;;;6.22;3.72;;;-2.90;37.60;;;;;;5045002;28;34316;-78
2022/03/04 04:41:12;;;;;;;6.57;4.18;;;-2.90;37.50;;;;;;5010886;28;35982;-78
2022/03/04 04:43:38;;;;;;;8.52;4.60;;;-2.90;37.30;;;;;;5027460;28;34120;-78
2022/03/04 04:46:05;;;;;;;9.95;4.45;;;-2.90;37.80;;;;;;5027276;28;34201;-78
2022/03/04 04:48:31;;;;;;;6.80;3.28;;;-2.90;37.40;;;;;;5027351;28;34559;-79
2022/03/04 04:50:59;;;;;;;8.15;5.03;;;-2.90;37.30;;;;;;5010575;28;36524;-78
2022/03/04 04:53:26;;;;;;;4.88;3.28;;;-3.00;37.20;;;;;;5027139;28;34360;-78
2022/03/04 04:55:52;;;;;;;5.63;4.13;;;-3.00;37.20;;;;;;5027022;28;34110;-78
2022/03/04 04:58:18;;;;;;;8.20;4.25;;;-3.00;36.50;;;;;;5011187;28;34008;-78
2022/03/04 05:00:45;;;;;;;6.95;3.85;;;-3.00;36.60;;;;;;5044624;28;34087;-78
2022/03/04 05:03:11;;;;;;;9.80;4.18;;;-3.10;36.80;;;;;;5027339;28;34162;-78
2022/03/04 05:05:37;;;;;;;8.07;4.10;;;-3.10;36.90;;;;;;5011454;28;34166;-78
2022/03/04 05:08:04;;;;;;;6.43;4.20;;;-3.10;37.20;;;;;;5026814;28;34413;-78
2022/03/04 05:10:30;;;;;;;7.18;4.03;;;-3.20;36.90;;;;;;5013000;28;35643;-78
2022/03/04 05:12:56;;;;;;;6.72;4.15;;;-3.20;36.90;;;;;;5046644;28;34334;-78
2022/03/04 05:15:22;;;;;;;6.45;3.90;;;-3.20;37.00;;;;;;5014219;28;34138;-78
2022/03/04 05:17:51;;;;;;;9.68;4.78;;;-3.20;37.30;;;;;;5030781;28;34378;-78
2022/03/04 05:20:18;;;;;;;6.68;3.80;;;-3.20;36.80;;;;;;5030521;28;36509;-78
2022/03/04 05:22:44;;;;;;;6.00;3.45;;;-3.20;36.90;;;;;;5030661;28;34449;-78
2022/03/04 05:25:11;;;;;;;6.80;3.92;;;-3.30;37.30;;;;;;5046843;28;34223;-78
2022/03/04 05:27:37;;;;;;;8.05;4.43;;;-3.30;37.30;;;;;;5046735;28;34131;-78
2022/03/04 05:30:04;;;;;;;7.85;3.55;;;-3.30;37.70;;;;;;5046604;28;35508;-78
2022/03/04 05:32:29;;;;;;;5.10;3.67;;;-3.30;37.20;;;;;;5030078;28;34216;-78
2022/03/04 05:34:55;;;;;;;23.88;4.78;;;-3.30;37.20;;;;;;5030456;28;34032;-78
2022/03/04 05:37:22;;;;;;;8.10;3.92;;;-3.30;37.10;;;;;;5030425;28;34168;-78
2022/03/04 05:39:48;;;;;;;9.00;4.60;;;-3.30;37.20;;;;;;5046075;28;35617;-78
2022/03/04 05:42:14;;;;;;;5.97;3.50;;;-3.30;37.40;;;;;;5046648;28;34223;-78
2022/03/04 05:44:40;;;;;;;7.68;4.45;;;-3.30;37.60;;;;;;5046072;28;34244;-78
2022/03/04 05:47:06;;;;;;;7.90;3.90;;;-3.40;37.00;;;;;;5063559;28;34101;-78
2022/03/04 05:49:32;;;;;;;7.88;4.32;;;-3.40;36.90;;;;;;5030147;28;35629;-78
2022/03/04 05:51:58;;;;;;;9.00;4.18;;;-3.40;36.80;;;;;;5064347;28;34194;-78
2022/03/04 05:54:24;;;;;;;6.35;3.63;;;-3.40;36.70;;;;;;5046079;28;34282;-78
2022/03/04 05:57:09;;;;;;;7.15;3.53;;;-3.50;36.80;;;;;;5046180;28;34563;-78
2022/03/04 05:59:35;;;;;;;5.43;3.25;;;-3.50;37.30;;;;;;5046071;28;36554;-78
2022/03/04 06:02:01;;;;;;;6.70;3.95;;;-3.50;37.30;;;;;;5045700;28;34096;-78
2022/03/04 06:04:27;;;;;;;5.95;3.90;;;-3.50;37.40;;;;;;5014148;28;34346;-78
2022/03/04 06:06:53;;;;;;;7.05;4.20;;;-3.50;37.30;;;;;;5030208;28;34161;-78
2022/03/04 06:09:21;;;;;;;6.50;4.28;;;-3.50;37.40;;;;;;5013312;28;36682;-78
2022/03/04 06:11:47;;;;;;;6.95;3.80;;;-3.60;37.40;;;;;;5014277;28;34171;-78
2022/03/04 06:14:13;;;;;;;8.20;4.47;;;-3.60;37.10;;;;;;5046080;28;34196;-78
2022/03/04 06:16:39;;;;;;;9.05;4.30;;;-3.60;37.10;;;;;;5030163;28;34149;-78
2022/03/04 06:19:05;;;;;;;10.57;4.80;;;-3.60;37.20;;;;;;5045655;28;35414;-78
2022/03/04 06:21:31;;;;;;;6.50;3.67;;;-3.60;37.70;;;;;;5046310;28;34260;-78
2022/03/04 06:23:57;;;;;;;9.38;3.90;;;-3.60;37.70;;;;;;5013584;28;34083;-78
2022/03/04 06:26:23;;;;;;;9.07;4.07;;;-3.60;37.60;;;;;;5030414;28;34217;-77
2022/03/04 06:28:49;;;;;;;6.55;4.55;;;-3.50;37.40;;;;;;5013303;28;35739;-78
2022/03/04 06:31:14;;;;;;;7.82;4.38;;;-3.50;37.10;;;;;;5029342;28;34283;-78
2022/03/04 06:33:42;;;;;;;5.63;2.97;;;-3.50;37.70;;;;;;5029439;28;34327;-78
2022/03/04 06:36:12;;;;;;;6.28;3.90;;;-3.50;37.50;;;;;;5046265;28;34413;-78
2022/03/04 06:38:41;;;;;;;6.78;3.72;;;-3.50;37.40;;;;;;5029742;28;35792;-78
2022/03/04 06:41:08;;;;;;;6.32;3.60;;;-3.50;37.40;;;;;;5030009;28;34071;-78
2022/03/04 06:43:34;;;;;;;5.70;3.65;;;-3.40;37.20;;;;;;5063851;28;34046;-78
2022/03/04 06:46:02;;;;;;;6.72;4.18;;;-3.30;37.40;;;;;;5045483;28;34057;-78
2022/03/04 06:48:28;;;;;;;6.47;3.85;;;-3.20;37.70;;;;;;5063002;28;34861;-78
2022/03/04 06:50:54;;;;;;;8.27;3.90;;;-3.20;37.40;;;;;;5045877;28;34191;-78
2022/03/04 06:53:21;;;;;;;8.70;4.95;;;-3.00;37.40;;;;;;5065366;28;34252;-78
2022/03/04 06:55:47;;;;;;;12.77;5.25;;;-2.90;37.50;;;;;;5032352;28;34549;-78
2022/03/04 06:58:14;;;;;;;9.13;5.15;;;-2.70;37.60;;;;;;5048770;28;35569;-78
2022/03/04 07:00:41;;;;;;;9.82;5.05;;;-2.50;37.30;;;;;;5047975;28;34033;-78
2022/03/04 07:03:07;;;;;;;9.02;4.70;;;-2.20;37.00;;;;;;5048288;28;34076;-78
2022/03/04 07:05:33;;;;;;;10.15;5.47;;;-2.10;36.70;;;;;;5048860;28;34312;-78
2022/03/04 07:07:59;;;;;;;10.35;5.32;;;-1.80;36.30;;;;;;5066328;28;34242;-78
2022/03/04 07:10:25;;;;;;;9.45;5.60;;;-1.60;35.90;;;;;;5048673;28;34369;-78
2022/03/04 07:12:52;;;;;;;10.95;5.63;;;-1.50;35.60;;;;;;5032549;28;34249;-78
2022/03/04 07:15:19;;;;;;;12.38;5.72;;;-1.30;35.30;;;;;;5048957;28;34584;-78
2022/03/04 07:17:47;;;;;;;9.00;5.30;;;-1.20;35.00;;;;;;5048596;28;36081;-78
2022/03/04 07:20:13;;;;;;;9.05;5.45;;;-1.00;34.90;;;;;;5049091;28;34164;-79
2022/03/04 07:22:40;;;;;;;12.20;6.07;;;-0.90;34.90;;;;;;5033232;28;34296;-78
2022/03/04 07:25:07;;;;;;;12.13;6.80;;;-0.80;34.70;;;;;;5067972;28;33753;-79
2022/03/04 07:27:34;;;;;;;10.70;5.97;;;-0.70;34.80;;;;;;5067900;28;34342;-78
2022/03/04 07:30:02;;;;;;;13.35;6.65;;;-0.60;34.80;;;;;;5049342;28;34121;-79
2022/03/04 07:32:27;;;;;;;10.45;6.10;;;-0.50;35.00;;;;;;5068672;28;34276;-79
2022/03/04 07:34:54;;;;;;;12.70;7.00;;;-0.30;35.00;;;;;;5068020;28;34453;-79
2022/03/04 07:37:20;;;;;;;13.18;7.47;;;-0.10;34.70;;;;;;5033404;28;35562;-79
2022/03/04 07:39:46;;;;;;;9.75;5.88;;;0.10;34.50;;;;;;5049823;28;34085;-79
2022/03/04 07:42:12;;;;;;;11.65;6.50;;;0.40;34.50;;;;;;5050451;28;34197;-79
2022/03/04 07:44:38;;;;;;;10.35;6.55;;;0.70;33.60;;;;;;5068745;28;34156;-79
2022/03/04 07:47:04;;;;;;;14.65;7.68;;;1.00;33.30;;;;;;5049854;28;36272;-79
2022/03/04 07:49:30;;;;;;;10.68;6.63;;;1.20;32.80;;;;;;5033352;28;34156;-79
2022/03/04 07:51:56;;;;;;;12.57;7.32;;;1.50;32.50;;;;;;5033158;28;34015;-79
2022/03/04 07:54:22;;;;;;;12.98;8.15;;;1.70;32.30;;;;;;5050460;28;34128;-79
2022/03/04 07:56:48;;;;;;;12.20;7.13;;;2.00;32.30;;;;;;5033629;28;35476;-78
2022/03/04 07:59:14;;;;;;;12.65;8.05;;;2.20;31.80;;;;;;5050449;28;34223;-79
2022/03/04 08:01:59;;;;;;;14.80;8.05;;;2.40;31.80;;;;;;5050895;28;34295;-79
2022/03/04 08:04:25;;;;;;;13.70;7.80;;;2.50;31.50;;;;;;5067427;28;34182;-79
2022/03/04 08:06:51;;;;;;;12.55;8.10;;;2.70;31.60;;;;;;5048993;28;35786;-78
2022/03/04 08:09:17;;;;;;;9.75;6.38;;;2.90;31.60;;;;;;5049535;28;34053;-79
2022/03/04 08:11:44;;;;;;;15.25;7.53;;;3.00;31.30;;;;;;5067982;28;34085;-78
2022/03/04 08:14:11;;;;;;;18.05;7.65;;;3.10;31.40;;;;;;5048256;28;34593;-78
2022/03/04 08:16:37;;;;;;;11.57;7.28;;;3.20;31.40;;;;;;5049447;28;35158;-78
2022/03/04 08:19:05;;;;;;;12.35;7.28;;;3.30;31.30;;;;;;5033089;28;34285;-78
2022/03/04 08:21:31;;;;;;;13.15;7.60;;;3.40;31.40;;;;;;5065969;28;34303;-78
2022/03/04 08:23:57;;;;;;;14.77;8.40;;;3.50;31.40;;;;;;5066981;28;34136;-78
2022/03/04 08:26:23;;;;;;;14.00;8.05;;;3.60;31.40;;;;;;5047969;28;35899;-78
2022/03/04 08:28:49;;;;;;;12.13;7.43;;;3.80;31.60;;;;;;5049187;28;34235;-78
2022/03/04 08:31:15;;;;;;;15.20;8.02;;;3.90;31.70;;;;;;5066475;28;34052;-78
2022/03/04 08:33:43;;;;;;;13.45;7.90;;;4.10;31.80;;;;;;5047578;28;34327;-78
2022/03/04 08:36:10;;;;;;;15.45;8.45;;;4.20;31.60;;;;;;5046664;28;36457;-78
2022/03/04 08:38:36;;;;;;;13.15;8.13;;;4.40;31.80;;;;;;5031140;28;34328;-77
2022/03/04 08:41:02;;;;;;;16.42;8.52;;;4.60;31.60;;;;;;5030420;28;34228;-77
2022/03/04 08:43:28;;;;;;;12.65;8.73;;;4.80;31.80;;;;;;5047251;28;34116;-77
2022/03/04 08:45:54;;;;;;;14.07;8.73;;;5.00;31.80;;;;;;5064905;28;35407;-77
2022/03/04 08:48:20;;;;;;;13.57;8.20;;;5.30;31.10;;;;;;5046706;28;34255;-77
2022/03/04 08:50:46;;;;;;;16.83;8.88;;;5.60;31.10;;;;;;5046959;28;34299;-77
2022/03/04 08:53:12;;;;;;;13.38;9.27;;;5.80;30.50;;;;;;5030506;28;34155;-77
2022/03/04 08:55:41;;;;;;;15.55;9.32;;;6.10;29.80;;;;;;5046312;28;35667;-77
2022/03/04 08:58:07;;;;;;;15.45;9.15;;;6.40;29.60;;;;;;5030596;28;34709;-77
2022/03/04 09:00:33;;;;;;;15.55;10.02;;;6.50;29.30;;;;;;5030983;28;34227;-77
2022/03/04 09:02:59;;;;;;;17.17;10.25;;;6.80;28.60;;;;;;5047535;28;34383;-77
2022/03/04 09:05:25;;;;;;;17.85;10.65;;;7.10;28.40;;;;;;5030449;28;36599;-77
2022/03/04 09:07:51;;;;;;;19.90;10.60;;;7.30;27.60;;;;;;5031002;28;34106;-77
2022/03/04 09:10:17;;;;;;;14.73;9.75;;;7.60;27.90;;;;;;5046049;28;34028;-76
2022/03/04 09:12:43;;;;;;;17.23;10.50;;;7.80;27.30;;;;;;5046872;28;34151;-76
2022/03/04 09:15:10;;;;;;;16.33;10.43;;;8.10;27.30;;;;;;5029438;28;35651;-76
2022/03/04 09:17:36;;;;;;;16.80;10.00;;;8.30;27.00;;;;;;5028516;28;34303;-76
2022/03/04 09:20:03;;;;;;;16.33;9.75;;;8.40;26.10;;;;;;5062377;28;34432;-76
2022/03/04 09:22:29;;;;;;;17.63;10.68;;;8.50;25.60;;;;;;5032920;28;34586;-76
2022/03/04 09:24:55;;;;;;;21.75;11.50;;;8.60;25.60;;;;;;5046117;28;35441;-76
2022/03/04 09:27:21;;;;;;;18.33;10.88;;;8.70;25.90;;;;;;5029546;28;34161;-77
2022/03/04 09:29:47;;;;;;;17.73;9.70;;;8.90;25.80;;;;;;5047524;28;34438;-76
2022/03/04 09:32:13;;;;;;;17.70;10.23;;;9.10;25.50;;;;;;5046935;28;34297;-77
2022/03/04 09:34:39;;;;;;;15.48;10.35;;;9.30;25.10;;;;;;5064055;28;34231;-76
2022/03/04 09:37:05;;;;;;;15.82;10.00;;;9.40;24.80;;;;;;5030006;28;34318;-76
2022/03/04 09:39:31;;;;;;;16.55;10.75;;;9.50;24.70;;;;;;5030509;28;34199;-77
2022/03/04 09:41:58;;;;;;;15.07;10.38;;;9.80;24.50;;;;;;5030056;28;34267;-77
2022/03/04 09:44:25;;;;;;;16.73;10.23;;;10.00;23.90;;;;;;5063848;28;35377;-77
2022/03/04 09:46:53;;;;;;;16.40;10.80;;;10.00;23.70;;;;;;5046243;28;34089;-77
2022/03/04 09:49:20;;;;;;;19.73;9.77;;;10.20;23.00;;;;;;5046427;28;34083;-76
2022/03/04 09:51:46;;;;;;;17.17;11.45;;;10.40;23.40;;;;;;5064106;28;34199;-77
2022/03/04 09:54:12;;;;;;;17.30;10.90;;;10.50;23.60;;;;;;5045634;28;35800;-76
2022/03/04 09:56:38;;;;;;;19.23;10.60;;;10.70;23.00;;;;;;5029066;28;34208;-76
2022/03/04 09:59:04;;;;;;;16.60;10.48;;;10.80;22.20;;;;;;5029312;28;34081;-76
2022/03/04 10:01:30;;;;;;;15.35;10.85;;;10.80;21.80;;;;;;5045797;28;34117;-77
2022/03/04 10:03:56;;;;;;;18.17;11.30;;;10.90;21.70;;;;;;5044966;28;36325;-76
2022/03/04 10:06:23;;;;;;;18.60;11.05;;;11.10;21.90;;;;;;5063226;28;34060;-77
2022/03/04 10:08:51;;;;;;;17.23;10.52;;;11.20;21.00;;;;;;5046365;28;34287;-77
2022/03/04 10:11:36;;;;;;;17.52;10.98;;;11.20;20.80;;;;;;5063196;28;34364;-77
2022/03/04 10:14:08;;;;;;;22.38;11.13;;;11.20;16.00;;;;;;5045521;28;35686;-77
2022/03/04 10:16:37;;;;;;;20.77;11.38;;;11.40;18.80;;;;;;5045838;28;34207;-76
2022/03/04 10:19:13;;;;;;;18.40;10.80;;;11.60;19.40;;;;;;5063478;28;34077;-77
2022/03/04 10:21:56;;;;;;;16.17;10.25;;;11.80;19.60;;;;;;5042018;28;34122;-77
2022/03/04 10:24:35;;;;;;;17.13;10.43;;;12.00;13.90;;;;;;5043661;28;34266;-77
2022/03/04 10:27:07;;;;;;;19.55;10.98;;;12.10;15.40;;;;;;5008832;28;34092;-77
2022/03/04 10:29:37;;;;;;;16.58;10.75;;;12.20;17.90;;;;;;5045999;28;34183;-77
2022/03/04 10:32:15;;;;;;;16.95;10.90;;;12.20;17.90;;;;;;5029132;28;34108;-76
2022/03/04 10:34:58;;;;;;;19.38;11.35;;;12.20;16.20;;;;;;5012450;28;36396;-76
2022/03/04 10:38:04;;;;;;;15.30;10.15;;;12.30;13.90;;;;;;5012676;28;34158;-77
2022/03/04 10:40:35;;;;;;;17.52;10.40;;;12.50;11.50;;;;;;5004293;28;34290;-76
2022/03/04 10:43:04;;;;;;;15.93;10.75;;;12.60;17.60;;;;;;5044779;28;34239;-76
2022/03/04 10:45:40;;;;;;;16.48;10.57;;;12.70;18.10;;;;;;5046767;28;34391;-77
2022/03/04 10:48:13;;;;;;;19.83;11.18;;;12.80;17.60;;;;;;5029024;28;34491;-76
2022/03/04 10:50:44;;;;;;;16.90;10.50;;;12.90;16.00;;;;;;5028576;28;34188;-77
2022/03/04 10:53:13;;;;;;;18.23;11.43;;;13.00;16.20;;;;;;5046652;28;34270;-77
2022/03/04 10:55:42;;;;;;;18.80;10.88;;;13.20;17.00;;;;;;5046403;28;34980;-77
2022/03/04 10:58:27;;;;;;;18.15;10.75;;;13.40;17.60;;;;;;5012302;28;34117;-77
2022/03/04 11:00:57;;;;;;;17.75;10.45;;;13.60;11.60;;;;;;5012099;28;34212;-77
2022/03/04 11:03:28;;;;;;;15.80;10.48;;;13.60;16.30;;;;;;5012458;28;34179;-76
2022/03/04 11:05:57;;;;;;;16.33;10.45;;;13.70;16.30;;;;;;5027886;28;36457;-77
2022/03/04 11:08:23;;;;;;;16.77;10.45;;;13.70;16.50;;;;;;5045708;28;34402;-77
2022/03/04 11:10:52;;;;;;;17.13;10.77;;;13.70;16.70;;;;;;5028609;28;34306;-77
2022/03/04 11:13:18;;;;;;;15.50;10.63;;;13.70;16.40;;;;;;5028802;28;34141;-77
2022/03/04 11:15:46;;;;;;;16.05;11.10;;;13.80;16.60;;;;;;5028416;28;35577;-77
2022/03/04 11:18:14;;;;;;;17.45;10.57;;;13.80;15.10;;;;;;5027627;28;34041;-77
2022/03/04 11:20:43;;;;;;;16.65;10.55;;;13.90;15.40;;;;;;5012082;28;34368;-77
2022/03/04 11:23:15;;;;;;;15.55;10.10;;;14.00;15.80;;;;;;5028040;28;34074;-77
2022/03/04 11:25:43;;;;;;;14.00;9.45;;;14.10;15.50;;;;;;5027006;28;35611;-77
2022/03/04 11:28:17;;;;;;;15.25;9.43;;;14.20;15.50;;;;;;5045917;28;34116;-77
2022/03/04 11:30:46;;;;;;;18.77;10.38;;;14.30;10.90;;;;;;5045238;28;34204;-77
2022/03/04 11:33:19;;;;;;;14.52;9.27;;;14.20;14.20;;;;;;5011175;28;34067;-77
2022/03/04 11:35:55;;;;;;;17.77;10.00;;;14.20;13.50;;;;;;5027332;28;36568;-77
2022/03/04 11:38:53;;;;;;;15.60;9.60;;;14.30;11.30;;;;;;5027107;28;34036;-77
2022/03/04 11:41:37;;;;;;;17.20;9.93;;;14.30;9.40;;;;;;5043967;28;34257;-77
2022/03/04 11:44:14;;;;;;;12.85;8.77;;;14.30;8.10;;;;;;5044492;28;34551;-77
2022/03/04 11:46:47;;;;;;;15.20;9.55;;;14.30;10.60;;;;;;5043661;28;36375;-77
2022/03/04 11:49:34;;;;;;;14.38;9.35;;;14.40;10.70;;;;;;5044272;28;34076;-77
2022/03/04 11:52:20;;;;;;;14.00;9.02;;;14.40;10.00;;;;;;5046134;28;34159;-77
2022/03/04 11:55:08;;;;;;;13.93;8.88;;;14.40;8.20;;;;;;5045403;28;34335;-77
2022/03/04 11:57:37;;;;;;;16.35;8.57;;;14.40;7.30;;;;;;5030701;28;36033;-77
2022/03/04 12:00:24;;;;;;;13.52;8.73;;;14.40;13.30;;;;;;5043868;28;34057;-77
2022/03/04 12:02:54;;;;;;;14.77;9.20;;;14.50;6.30;;;;;;5030597;28;34197;-76
2022/03/04 12:05:25;;;;;;;14.35;8.73;;;14.40;12.00;;;;;;5028070;28;34076;-77
2022/03/04 12:08:08;;;;;;;15.27;9.23;;;14.40;12.60;;;;;;5028052;28;34400;-77
2022/03/04 12:10:47;;;;;;;13.10;7.63;;;14.40;6.40;;;;;;5027711;28;34225;-77
2022/03/04 12:13:18;;;;;;;12.95;8.35;;;14.50;6.90;;;;;;5044579;28;34274;-77
2022/03/04 12:15:55;;;;;;;13.20;8.48;;;14.50;9.30;;;;;;5028157;28;34239;-77
2022/03/04 12:18:42;;;;;;;12.35;8.63;;;14.50;10.60;;;;;;5027353;28;35818;-76
2022/03/04 12:21:13;;;;;;;13.02;7.75;;;14.60;7.50;;;;;;5043439;28;34084;-77
2022/03/04 12:23:50;;;;;;;12.70;8.23;;;14.60;11.40;;;;;;5044813;28;34203;-77
2022/03/04 12:26:24;;;;;;;11.00;7.45;;;14.60;7.90;;;;;;5027184;28;34576;-78
2022/03/04 12:28:53;;;;;;;13.40;7.72;;;14.60;10.40;;;;;;5027856;28;36460;-77
2022/03/04 12:31:21;;;;;;;11.18;7.70;;;14.60;11.20;;;;;;5028410;28;34288;-77
2022/03/04 12:33:54;;;;;;;16.80;8.57;;;14.60;11.50;;;;;;5027422;28;34110;-77
2022/03/04 12:36:21;;;;;;;12.80;7.95;;;14.70;11.40;;;;;;5044268;28;34417;-77
2022/03/04 12:38:51;;;;;;;11.88;7.65;;;14.80;12.20;;;;;;5043987;28;36301;-77
2022/03/04 12:41:20;;;;;;;12.40;8.32;;;14.80;9.70;;;;;;5027265;28;34382;-77
2022/03/04 12:43:49;;;;;;;15.15;8.75;;;14.80;11.10;;;;;;5045117;28;34163;-77
2022/03/04 12:46:17;;;;;;;11.98;8.35;;;14.70;11.20;;;;;;5043522;28;34318;-77
2022/03/04 12:48:43;;;;;;;14.57;9.27;;;14.70;11.00;;;;;;5044129;28;35822;-77